createdAt,value
2022-11-23T00:01:35.910Z,24.90
2022-11-23T00:04:07.650Z,24.90
2022-11-23T00:06:36.852Z,25.00
2022-11-23T00:09:06.081Z,25.00
2022-11-23T00:11:36.246Z,24.90
2022-11-23T00:14:05.882Z,24.90
2022-11-23T00:16:34.208Z,24.90
2022-11-23T00:19:03.649Z,24.90
2022-11-23T00:21:33.365Z,24.90
2022-11-23T00:24:01.486Z,24.90
2022-11-23T00:26:29.479Z,24.90
2022-11-23T00:28:57.306Z,24.90
2022-11-23T00:31:26.644Z,24.90
2022-11-23T00:33:56.982Z,24.90
2022-11-23T00:36:27.797Z,24.90
2022-11-23T00:38:56.313Z,24.90
2022-11-23T00:41:26.727Z,24.80
2022-11-23T00:43:54.709Z,24.80
2022-11-23T00:46:26.969Z,24.80
2022-11-23T00:48:58.154Z,24.80
2022-11-23T00:51:28.569Z,24.80
2022-11-23T00:53:56.729Z,24.80
2022-11-23T00:56:24.525Z,24.80
2022-11-23T00:58:55.960Z,24.80
2022-11-23T01:01:27.499Z,24.80
2022-11-23T01:03:59.107Z,24.80
2022-11-23T01:06:29.691Z,24.70
2022-11-23T01:09:00.411Z,24.70
2022-11-23T01:11:32.899Z,24.70
2022-11-23T01:14:00.761Z,24.70
2022-11-23T01:16:32.444Z,24.70
2022-11-23T01:19:03.252Z,24.70
2022-11-23T01:21:32.988Z,24.70
2022-11-23T01:24:01.535Z,24.60
2022-11-23T01:26:29.346Z,24.60
2022-11-23T01:28:57.161Z,24.60
2022-11-23T01:31:26.907Z,24.60
2022-11-23T01:33:57.434Z,24.60
2022-11-23T01:36:28.519Z,24.60
2022-11-23T01:38:56.399Z,24.60
2022-11-23T01:41:27.251Z,24.60
2022-11-23T01:43:55.582Z,24.60
2022-11-23T01:46:23.664Z,24.50
2022-11-23T01:48:58.837Z,24.50
2022-11-23T01:51:32.135Z,24.50
2022-11-23T01:54:06.361Z,24.50
2022-11-23T01:56:45.402Z,24.50
2022-11-23T01:59:18.482Z,24.50
2022-11-23T02:01:47.164Z,24.50
2022-11-23T02:04:24.306Z,24.50
2022-11-23T02:06:52.331Z,24.40
2022-11-23T02:09:22.637Z,24.40
2022-11-23T02:11:50.522Z,24.40
2022-11-23T02:14:23.411Z,24.40
2022-11-23T02:16:51.749Z,24.40
2022-11-23T02:19:35.801Z,24.40
2022-11-23T02:22:05.564Z,24.40
2022-11-23T02:24:46.399Z,24.40
2022-11-23T02:27:16.608Z,24.30
2022-11-23T02:29:46.262Z,24.30
2022-11-23T02:32:20.730Z,24.30
2022-11-23T02:34:48.521Z,24.30
2022-11-23T02:37:17.813Z,24.30
2022-11-23T02:39:49.441Z,24.30
2022-11-23T02:42:19.487Z,24.30
2022-11-23T02:44:59.296Z,24.30
2022-11-23T02:47:27.269Z,24.30
2022-11-23T02:49:55.168Z,24.20
2022-11-23T02:52:23.018Z,24.20
2022-11-23T02:54:50.920Z,24.20
2022-11-23T02:57:20.167Z,24.20
2022-11-23T02:59:48.108Z,24.20
2022-11-23T03:02:15.977Z,24.20
2022-11-23T03:04:43.765Z,24.20
2022-11-23T03:07:11.645Z,24.20
2022-11-23T03:09:39.469Z,24.20
2022-11-23T03:12:08.148Z,24.20
2022-11-23T03:14:38.690Z,24.10
2022-11-23T03:17:06.616Z,24.10
2022-11-23T03:19:34.660Z,24.10
2022-11-23T03:22:03.058Z,24.10
2022-11-23T03:24:31.830Z,24.10
2022-11-23T03:26:59.740Z,24.10
2022-11-23T03:29:27.600Z,24.10
2022-11-23T03:31:57.028Z,24.10
2022-11-23T03:34:24.878Z,24.10
2022-11-23T03:36:52.757Z,24.10
2022-11-23T03:39:20.660Z,24.10
2022-11-23T03:41:48.540Z,24.00
2022-11-23T03:44:16.469Z,24.00
2022-11-23T03:46:44.349Z,24.00
2022-11-23T03:49:13.723Z,24.00
2022-11-23T03:51:41.530Z,24.00
2022-11-23T03:54:09.735Z,24.00
2022-11-23T03:56:37.557Z,24.00
2022-11-23T03:59:05.412Z,24.00
2022-11-23T04:01:33.319Z,24.00
2022-11-23T04:04:01.134Z,24.00
2022-11-23T04:06:30.320Z,24.00
2022-11-23T04:09:02.102Z,23.90
2022-11-23T04:11:30.506Z,23.90
2022-11-23T04:13:58.337Z,23.90
2022-11-23T04:16:26.213Z,23.90
2022-11-23T04:18:54.056Z,23.90
2022-11-23T04:21:21.938Z,23.90
2022-11-23T04:23:51.076Z,23.90
2022-11-23T04:26:19.030Z,23.90
2022-11-23T04:28:47.125Z,23.90
2022-11-23T04:31:14.964Z,23.90
2022-11-23T04:33:42.856Z,23.90
2022-11-23T04:36:10.850Z,23.80
2022-11-23T04:38:40.038Z,23.80
2022-11-23T04:41:09.306Z,23.80
2022-11-23T04:43:37.113Z,23.80
2022-11-23T04:46:05.249Z,23.80
2022-11-23T04:48:33.080Z,23.80
2022-11-23T04:51:01.076Z,23.80
2022-11-23T04:53:28.984Z,23.80
2022-11-23T04:55:56.837Z,23.80
2022-11-23T04:58:26.909Z,23.80
2022-11-23T05:00:58.547Z,23.80
2022-11-23T05:03:27.152Z,23.80
2022-11-23T05:05:55.190Z,23.80
2022-11-23T05:08:23.006Z,23.70
2022-11-23T05:10:50.827Z,23.70
2022-11-23T05:13:18.617Z,23.70
2022-11-23T05:15:47.843Z,23.70
2022-11-23T05:18:15.950Z,23.70
2022-11-23T05:20:43.763Z,23.70
2022-11-23T05:23:12.214Z,23.70
2022-11-23T05:25:40.108Z,23.70
2022-11-23T05:28:38.025Z,23.70
2022-11-23T05:30:57.844Z,23.70
2022-11-23T05:33:26.860Z,23.70
2022-11-23T05:35:54.734Z,23.70
2022-11-23T05:38:22.677Z,23.60
2022-11-23T05:40:50.636Z,23.60
2022-11-23T05:43:18.445Z,23.60
2022-11-23T05:45:46.265Z,23.60
2022-11-23T05:48:15.509Z,23.60
2022-11-23T05:50:43.435Z,23.60
2022-11-23T05:53:11.351Z,23.60
2022-11-23T05:55:39.232Z,23.60
2022-11-23T05:58:07.062Z,23.60
2022-11-23T06:00:35.006Z,23.60
2022-11-23T06:03:03.431Z,23.60
2022-11-23T06:05:32.998Z,23.60
2022-11-23T06:08:01.121Z,23.60
2022-11-23T06:10:28.954Z,23.70
2022-11-23T06:12:57.646Z,23.70
2022-11-23T06:15:25.464Z,23.70
2022-11-23T06:17:53.222Z,23.70
2022-11-23T06:20:21.056Z,23.80
2022-11-23T06:22:55.146Z,23.80
2022-11-23T06:25:24.042Z,23.80
2022-11-23T06:27:56.793Z,23.80
2022-11-23T06:30:25.222Z,23.80
2022-11-23T06:32:53.078Z,23.90
2022-11-23T06:35:21.268Z,23.90
2022-11-23T06:37:50.008Z,23.90
2022-11-23T06:40:19.483Z,23.90
2022-11-23T06:42:48.385Z,24.00
2022-11-23T06:45:16.932Z,24.00
2022-11-23T06:47:44.919Z,24.00
2022-11-23T06:50:14.492Z,24.00
2022-11-23T06:52:42.375Z,24.00
2022-11-23T06:55:10.621Z,24.10
2022-11-23T06:57:39.789Z,24.10
2022-11-23T07:00:11.200Z,24.10
2022-11-23T07:02:39.480Z,24.10
2022-11-23T07:05:08.712Z,24.10
2022-11-23T07:07:36.779Z,24.10
2022-11-23T07:10:07.462Z,24.10
2022-11-23T07:12:35.512Z,24.20
2022-11-23T07:15:05.762Z,24.20
2022-11-23T07:17:34.466Z,24.20
2022-11-23T07:20:02.308Z,24.20
2022-11-23T07:22:30.119Z,24.20
2022-11-23T07:24:57.884Z,24.20
2022-11-23T07:27:25.705Z,24.20
2022-11-23T07:29:53.533Z,24.20
2022-11-23T07:32:22.887Z,24.20
2022-11-23T07:34:50.785Z,24.20
2022-11-23T07:37:18.602Z,24.20
2022-11-23T07:39:57.510Z,24.30
2022-11-23T07:42:38.332Z,24.30
2022-11-23T07:45:12.945Z,24.30
2022-11-23T07:47:42.150Z,24.30
2022-11-23T07:50:12.876Z,24.30
2022-11-23T07:52:41.675Z,24.30
2022-11-23T07:55:10.576Z,24.40
2022-11-23T07:57:38.406Z,24.40
2022-11-23T08:00:08.397Z,24.40
2022-11-23T08:02:36.328Z,24.40
2022-11-23T08:05:12.731Z,24.40
2022-11-23T08:07:42.167Z,24.40
2022-11-23T08:10:11.112Z,24.40
2022-11-23T08:12:38.959Z,24.50
2022-11-23T08:15:08.284Z,24.50
2022-11-23T08:17:36.197Z,24.50
2022-11-23T08:20:06.112Z,24.50
2022-11-23T08:22:33.954Z,24.50
2022-11-23T08:25:01.937Z,24.60
2022-11-23T08:27:29.751Z,24.60
2022-11-23T08:29:57.535Z,24.60
2022-11-23T08:32:25.524Z,24.60
2022-11-23T08:34:53.344Z,24.70
2022-11-23T08:37:22.544Z,24.70
2022-11-23T08:39:50.407Z,24.70
2022-11-23T08:42:18.321Z,24.70
2022-11-23T08:44:46.209Z,24.70
2022-11-23T08:47:14.080Z,24.70
2022-11-23T08:49:42.073Z,24.70
2022-11-23T08:52:10.394Z,24.80
2022-11-23T08:54:39.552Z,24.80
2022-11-23T08:57:07.515Z,24.80
2022-11-23T08:59:35.452Z,24.80
2022-11-23T09:02:03.380Z,24.80
2022-11-23T09:04:31.553Z,24.90
2022-11-23T09:06:59.417Z,24.90
2022-11-23T09:09:27.249Z,24.90
2022-11-23T09:11:56.507Z,24.90
2022-11-23T09:14:24.488Z,24.90
2022-11-23T09:16:52.372Z,24.90
2022-11-23T09:19:20.224Z,25.00
2022-11-23T09:21:48.080Z,25.00
2022-11-23T09:24:16.013Z,25.00
2022-11-23T09:26:43.942Z,25.00
2022-11-23T09:29:13.491Z,25.00
2022-11-23T09:31:41.379Z,25.00
2022-11-23T09:34:11.299Z,25.00
2022-11-23T09:36:39.165Z,25.00
2022-11-23T09:39:06.981Z,25.00
2022-11-23T09:42:01.499Z,25.00
2022-11-23T09:44:53.145Z,25.10
2022-11-23T09:47:48.708Z,25.10
2022-11-23T09:50:26.124Z,25.10
2022-11-23T09:52:55.259Z,25.10
2022-11-23T09:55:37.702Z,25.10
2022-11-23T09:58:07.602Z,25.10
2022-11-23T10:00:42.231Z,25.10
2022-11-23T10:03:16.733Z,25.10
2022-11-23T10:05:56.883Z,25.10
2022-11-23T10:08:40.255Z,25.10
2022-11-23T10:11:53.113Z,25.10
2022-11-23T10:14:56.877Z,25.10
2022-11-23T10:17:50.962Z,25.10
2022-11-23T10:20:38.854Z,25.10
2022-11-23T10:23:18.459Z,25.20
2022-11-23T10:25:53.438Z,25.20
2022-11-23T10:28:24.279Z,25.20
2022-11-23T10:31:02.466Z,25.20
2022-11-23T10:33:38.039Z,25.20
2022-11-23T10:36:06.450Z,25.20
2022-11-23T10:38:35.303Z,25.30
2022-11-23T10:41:08.477Z,25.30
2022-11-23T10:43:44.345Z,25.30
2022-11-23T10:46:31.774Z,25.30
2022-11-23T10:49:18.542Z,25.30
2022-11-23T10:51:53.195Z,25.40
2022-11-23T10:54:27.729Z,25.40
2022-11-23T10:56:58.070Z,25.40
2022-11-23T10:59:34.461Z,25.50
2022-11-23T11:02:21.708Z,25.50
2022-11-23T11:04:58.475Z,25.50
2022-11-23T11:07:31.161Z,25.50
2022-11-23T11:10:01.331Z,25.50
2022-11-23T11:12:34.526Z,25.60
2022-11-23T11:15:15.586Z,25.60
2022-11-23T11:17:43.572Z,25.60
2022-11-23T11:20:33.287Z,25.70
2022-11-23T11:23:05.034Z,25.70
2022-11-23T11:25:36.829Z,25.70
2022-11-23T11:28:19.509Z,25.70
2022-11-23T11:31:02.105Z,25.70
2022-11-23T11:33:41.945Z,25.80
2022-11-23T11:36:17.448Z,25.80
2022-11-23T11:39:15.070Z,25.80
2022-11-23T11:41:40.606Z,25.80
2022-11-23T11:44:17.965Z,25.90
2022-11-23T11:46:53.855Z,25.90
2022-11-23T11:49:27.563Z,25.90
2022-11-23T11:52:06.249Z,25.90
2022-11-23T11:54:44.689Z,25.90
2022-11-23T11:57:21.019Z,25.90
2022-11-23T11:59:52.896Z,25.90
2022-11-23T12:02:27.483Z,25.90
2022-11-23T12:05:03.963Z,25.90
2022-11-23T12:07:37.442Z,26.00
2022-11-23T12:10:13.697Z,26.00
2022-11-23T12:12:41.632Z,26.00
2022-11-23T12:15:41.467Z,26.00
2022-11-23T12:18:59.788Z,26.00
2022-11-23T12:21:56.483Z,26.00
2022-11-23T12:24:45.596Z,26.00
2022-11-23T12:27:28.676Z,26.00
2022-11-23T12:30:22.387Z,26.00
2022-11-23T12:33:21.444Z,26.10
2022-11-23T12:36:24.167Z,26.10
2022-11-23T12:38:59.050Z,26.10
2022-11-23T12:41:40.500Z,26.10
2022-11-23T12:44:49.562Z,26.10
2022-11-23T12:47:32.815Z,26.10
2022-11-23T12:50:17.678Z,26.10
2022-11-23T12:53:07.128Z,26.10
2022-11-23T12:55:49.455Z,26.10
2022-11-23T12:58:26.898Z,26.10
2022-11-23T13:01:06.636Z,26.10
2022-11-23T13:04:35.381Z,26.20
2022-11-23T13:08:08.329Z,26.10
2022-11-23T13:11:02.124Z,26.20
2022-11-23T13:13:50.426Z,26.20
2022-11-23T13:16:36.905Z,26.20
2022-11-23T13:19:28.943Z,26.20
2022-11-23T13:21:57.098Z,26.20
2022-11-23T13:24:31.569Z,26.20
2022-11-23T13:27:41.556Z,26.20
2022-11-23T13:30:35.640Z,26.20
2022-11-23T13:33:39.151Z,26.20
2022-11-23T13:36:18.318Z,26.20
2022-11-23T13:38:47.519Z,26.20
2022-11-23T13:42:00.573Z,26.20
2022-11-23T13:44:33.188Z,26.20
2022-11-23T13:47:06.709Z,26.20
2022-11-23T13:49:43.297Z,26.20
2022-11-23T13:52:32.417Z,26.20
2022-11-23T13:55:22.724Z,26.10
2022-11-23T13:58:38.036Z,26.20
2022-11-23T14:01:06.254Z,26.20
2022-11-23T14:03:57.125Z,26.10
2022-11-23T14:06:44.326Z,26.10
2022-11-23T14:09:22.215Z,26.10
2022-11-23T14:12:18.149Z,26.10
2022-11-23T14:14:55.207Z,26.10
2022-11-23T14:18:21.757Z,26.20
2022-11-23T14:21:07.619Z,26.10
2022-11-23T14:24:23.025Z,26.10
2022-11-23T14:27:39.035Z,26.10
2022-11-23T14:30:24.453Z,26.20
2022-11-23T14:33:17.698Z,26.20
2022-11-23T14:35:59.961Z,26.20
2022-11-23T14:39:05.529Z,26.20
2022-11-23T14:41:36.306Z,26.10
2022-11-23T14:44:06.907Z,26.10
2022-11-23T14:46:34.805Z,26.10
2022-11-23T14:49:07.899Z,26.10
2022-11-23T14:51:44.985Z,26.10
2022-11-23T14:54:15.995Z,26.10
2022-11-23T14:56:47.567Z,26.10
2022-11-23T14:59:24.509Z,26.10
2022-11-23T15:01:57.468Z,26.10
2022-11-23T15:04:34.442Z,26.10
2022-11-23T15:07:12.958Z,26.10
2022-11-23T15:09:52.065Z,26.10
2022-11-23T15:12:25.790Z,26.10
2022-11-23T15:14:57.276Z,26.10
2022-11-23T15:17:25.451Z,26.10
2022-11-23T15:19:58.083Z,26.00
2022-11-23T15:22:31.207Z,26.00
2022-11-23T15:25:08.192Z,26.00
2022-11-23T15:27:41.793Z,26.00
2022-11-23T15:30:18.773Z,26.00
2022-11-23T15:32:58.630Z,26.00
2022-11-23T15:35:33.928Z,26.00
2022-11-23T15:38:06.027Z,26.00
2022-11-23T15:40:38.047Z,26.00
2022-11-23T15:43:06.143Z,26.00
2022-11-23T15:45:58.004Z,25.90
2022-11-23T15:48:30.835Z,25.90
2022-11-23T15:51:01.863Z,25.90
2022-11-23T15:53:34.342Z,25.90
2022-11-23T15:56:05.602Z,25.90
2022-11-23T15:58:35.668Z,25.90
2022-11-23T16:01:13.181Z,25.90
2022-11-23T16:03:52.426Z,25.90
2022-11-23T16:06:29.270Z,25.90
2022-11-23T16:08:58.474Z,25.90
2022-11-23T16:11:34.144Z,25.80
2022-11-23T16:14:17.462Z,25.80
2022-11-23T16:16:49.054Z,25.80
2022-11-23T16:19:29.845Z,25.80
2022-11-23T16:22:03.290Z,25.80
2022-11-23T16:24:36.060Z,25.80
2022-11-23T16:27:14.804Z,25.70
2022-11-23T16:29:43.227Z,25.70
2022-11-23T16:32:26.101Z,25.70
2022-11-23T16:34:54.408Z,25.70
2022-11-23T16:37:23.127Z,25.70
2022-11-23T16:39:52.465Z,25.70
2022-11-23T16:42:20.385Z,25.70
2022-11-23T16:44:48.317Z,25.70
2022-11-23T16:47:25.693Z,25.70
2022-11-23T16:49:54.803Z,25.70
2022-11-23T16:52:23.849Z,25.70
2022-11-23T16:54:53.853Z,25.70
2022-11-23T16:57:30.319Z,25.70
2022-11-23T17:00:02.420Z,25.70
2022-11-23T17:02:30.312Z,25.70
2022-11-23T17:04:58.292Z,25.70
2022-11-23T17:07:26.463Z,25.70
2022-11-23T17:09:56.418Z,25.70
2022-11-23T17:12:24.331Z,25.70
2022-11-23T17:14:52.202Z,25.70
2022-11-23T17:17:23.055Z,25.60
2022-11-23T17:19:51.892Z,25.60
2022-11-23T17:22:21.312Z,25.60
2022-11-23T17:24:52.557Z,25.60
2022-11-23T17:27:25.202Z,25.60
2022-11-23T17:29:59.354Z,25.60
2022-11-23T17:32:27.977Z,25.60
2022-11-23T17:34:55.784Z,25.60
2022-11-23T17:37:25.487Z,25.60
2022-11-23T17:39:53.555Z,25.60
2022-11-23T17:42:22.956Z,25.60
2022-11-23T17:44:51.008Z,25.60
2022-11-23T17:47:26.257Z,25.60
2022-11-23T17:49:54.071Z,25.60
2022-11-23T17:52:22.397Z,25.50
2022-11-23T17:54:50.220Z,25.50
2022-11-23T17:57:20.986Z,25.50
2022-11-23T17:59:50.754Z,25.50
2022-11-23T18:02:19.652Z,25.50
2022-11-23T18:04:47.836Z,25.50
2022-11-23T18:07:18.631Z,25.50
2022-11-23T18:09:46.524Z,25.50
2022-11-23T18:12:14.378Z,25.50
2022-11-23T18:14:42.191Z,25.50
2022-11-23T18:17:11.746Z,25.50
2022-11-23T18:19:39.595Z,25.50
2022-11-23T18:22:07.393Z,25.50
2022-11-23T18:24:35.216Z,25.40
2022-11-23T18:27:03.063Z,25.40
2022-11-23T18:29:31.261Z,25.40
2022-11-23T18:31:59.518Z,25.40
2022-11-23T18:34:28.674Z,25.40
2022-11-23T18:36:56.541Z,25.40
2022-11-23T18:39:24.533Z,25.40
2022-11-23T18:41:52.396Z,25.40
2022-11-23T18:44:20.209Z,25.40
2022-11-23T18:46:48.158Z,25.30
2022-11-23T18:49:16.156Z,25.30
2022-11-23T18:51:45.534Z,25.30
2022-11-23T18:54:13.411Z,25.30
2022-11-23T18:56:41.224Z,25.30
2022-11-23T18:59:12.766Z,25.30
2022-11-23T19:01:47.222Z,25.30
2022-11-23T19:04:15.138Z,25.30
2022-11-23T19:06:43.099Z,25.30
2022-11-23T19:09:14.228Z,25.30
2022-11-23T19:11:42.429Z,25.30
2022-11-23T19:14:11.599Z,25.30
2022-11-23T19:16:39.460Z,25.30
2022-11-23T19:19:08.469Z,25.30
2022-11-23T19:21:37.107Z,25.20
2022-11-23T19:24:07.124Z,25.30
2022-11-23T19:26:38.286Z,25.30
2022-11-23T19:29:06.264Z,25.30
2022-11-23T19:31:34.227Z,25.30
2022-11-23T19:34:05.778Z,25.30
2022-11-23T19:36:36.451Z,25.30
2022-11-23T19:39:06.434Z,25.20
2022-11-23T19:41:35.743Z,25.20
2022-11-23T19:44:03.713Z,25.20
2022-11-23T19:46:33.031Z,25.20
2022-11-23T19:49:01.051Z,25.20
2022-11-23T19:51:29.661Z,25.20
2022-11-23T19:53:58.054Z,25.20
2022-11-23T19:56:28.902Z,25.20
2022-11-23T19:59:00.924Z,25.20
2022-11-23T20:01:32.113Z,25.20
2022-11-23T20:04:08.789Z,25.10
2022-11-23T20:06:42.173Z,25.20
2022-11-23T20:09:12.808Z,25.20
2022-11-23T20:11:45.837Z,25.10
2022-11-23T20:14:17.501Z,25.10
2022-11-23T20:16:45.362Z,25.10
2022-11-23T20:19:13.179Z,25.10
2022-11-23T20:21:41.004Z,25.10
2022-11-23T20:24:13.263Z,25.10
2022-11-23T20:26:42.299Z,25.10
2022-11-23T20:29:13.654Z,25.20
2022-11-23T20:31:43.014Z,25.10
2022-11-23T20:34:15.354Z,25.20
2022-11-23T20:36:46.313Z,25.20
2022-11-23T20:39:16.088Z,25.10
2022-11-23T20:41:45.274Z,25.20
2022-11-23T20:44:15.416Z,25.10
2022-11-23T20:47:01.289Z,25.10
2022-11-23T20:49:30.774Z,25.20
2022-11-23T20:51:58.856Z,25.20
2022-11-23T20:54:26.912Z,25.20
2022-11-23T20:56:54.955Z,25.20
2022-11-23T20:59:23.921Z,25.20
2022-11-23T21:01:53.739Z,25.20
2022-11-23T21:04:21.776Z,25.20
2022-11-23T21:06:49.570Z,25.20
2022-11-23T21:09:18.070Z,25.20
2022-11-23T21:12:03.831Z,25.20
2022-11-23T21:14:32.992Z,25.20
2022-11-23T21:17:02.660Z,25.20
2022-11-23T21:19:33.208Z,25.30
2022-11-23T21:22:05.554Z,25.30
2022-11-23T21:27:27.464Z,25.30
2022-11-23T21:29:55.533Z,25.30
2022-11-23T21:32:25.032Z,25.30
2022-11-23T21:34:52.866Z,25.30
2022-11-23T21:37:21.366Z,25.30
2022-11-23T21:39:52.898Z,25.40
2022-11-23T21:42:21.330Z,25.40
2022-11-23T21:44:49.169Z,25.40
2022-11-23T21:47:17.629Z,25.40
2022-11-23T21:49:47.250Z,25.40
2022-11-23T21:52:15.233Z,25.40
2022-11-23T21:54:48.558Z,25.40
2022-11-23T21:57:17.067Z,25.40
2022-11-23T21:59:44.922Z,25.40
2022-11-23T22:02:13.115Z,25.40
2022-11-23T22:04:41.225Z,25.40
2022-11-23T22:07:10.956Z,25.40
2022-11-23T22:09:39.004Z,25.40
2022-11-23T22:12:08.065Z,25.40
2022-11-23T22:14:36.380Z,25.40
2022-11-23T22:17:04.690Z,25.40
2022-11-23T22:19:32.810Z,25.40
2022-11-23T22:22:00.804Z,25.40
2022-11-23T22:24:30.355Z,25.40
2022-11-23T22:26:58.581Z,25.40
2022-11-23T22:29:26.827Z,25.40
2022-11-23T22:31:55.113Z,25.40
2022-11-23T22:34:23.184Z,25.40
2022-11-23T22:36:51.885Z,25.40
2022-11-23T22:39:20.509Z,25.40
2022-11-23T22:41:50.496Z,25.40
2022-11-23T22:44:18.366Z,25.40
2022-11-23T22:46:46.626Z,25.40
2022-11-23T22:49:14.734Z,25.40
2022-11-23T22:51:42.855Z,25.40
2022-11-23T22:54:11.115Z,25.30
2022-11-23T22:56:40.328Z,25.30
2022-11-23T22:59:09.592Z,25.30
2022-11-23T23:01:37.584Z,25.30
2022-11-23T23:04:06.082Z,25.30
2022-11-23T23:06:35.101Z,25.30
2022-11-23T23:09:05.886Z,25.30
2022-11-23T23:11:37.457Z,25.30
2022-11-23T23:14:05.792Z,25.30
2022-11-23T23:16:36.255Z,25.30
2022-11-23T23:19:04.645Z,25.30
2022-11-23T23:21:32.872Z,25.30
2022-11-23T23:24:02.194Z,25.30
2022-11-23T23:26:31.215Z,25.30
2022-11-23T23:29:01.293Z,25.30
2022-11-23T23:31:30.957Z,25.30
2022-11-23T23:34:01.887Z,25.30
2022-11-23T23:36:30.736Z,25.30
2022-11-23T23:38:59.043Z,25.30
2022-11-23T23:41:27.107Z,25.30
2022-11-23T23:43:59.505Z,25.30
2022-11-23T23:46:28.095Z,25.30
2022-11-23T23:48:56.033Z,25.20
2022-11-23T23:51:25.930Z,25.20
2022-11-23T23:53:54.405Z,25.20
2022-11-23T23:56:25.647Z,25.20
2022-11-23T23:58:56.520Z,25.20
